Sunday, October 22, 2017, 8:47 PM EDT
Back to Local

KPHD, New Philadelphia Clever Fld

Location: New Philadelphia, OH, United States Lat: 40.467
Local Time: 8:47 PM EDT ( 0:47 GMT) Lon: -81.417
Time Zone: US/Eastern Elev: 895 ft

Show me the last for .
Show Decoded

2017-10-22 19:53 METAR KPHD 222353Z AUTO 13003KT 10SM CLR 18/11 A3016 RMK AO2 SLP214 T01780106
                 10261 20172 50003 =
2017-10-22 18:53 METAR KPHD 222253Z AUTO 14003KT 10SM CLR 21/10 A3016 RMK AO2 SLP213 T02060100 =
2017-10-22 17:53 METAR KPHD 222153Z AUTO 17003KT 10SM CLR 23/11 A3016 RMK AO2 SLP212 T02330106 =
2017-10-22 16:53 METAR KPHD 222053Z AUTO 14004KT 10SM CLR 24/10 A3015 RMK AO2 SLP208 T02440100
                 56023 =
2017-10-22 15:53 METAR KPHD 221953Z AUTO 15006KT 10SM CLR 26/09 A3017 RMK AO2 SLP214 T02560089 =
2017-10-22 14:53 METAR KPHD 221853Z AUTO 16004KT 10SM CLR 25/11 A3020 RMK AO2 SLP223 T02500106 =
2017-10-22 13:53 METAR KPHD 221753Z AUTO VRB04KT 10SM CLR 25/10 A3022 RMK AO2 SLP232 T02500100
                 10250 20089 58020 =
2017-10-22 12:53 METAR KPHD 221653Z AUTO VRB05KT 10SM CLR 24/11 A3026 RMK AO2 SLP243 T02440106 =
2017-10-22 11:53 METAR KPHD 221553Z AUTO VRB03KT 10SM CLR 22/11 A3027 RMK AO2 SLP250 T02220111 =
2017-10-22 10:53 METAR KPHD 221453Z AUTO VRB04KT 10SM CLR 19/12 A3028 RMK AO2 SLP255 T01940122
                 50005 =
2017-10-22 09:53 METAR KPHD 221353Z AUTO 13005KT 10SM CLR 16/11 A3029 RMK AO2 SLP257 T01560111 =
2017-10-22 08:53 METAR KPHD 221253Z AUTO 00000KT 10SM CLR 12/11 A3028 RMK AO2 SLP256 T01220106 =
2017-10-22 07:53 METAR KPHD 221153Z AUTO 00000KT 5SM BR CLR 09/08 A3027 RMK AO2 SLP252 T00890083
                 10111 20089 50004 =
2017-10-22 06:53 METAR KPHD 221053Z AUTO 00000KT 7SM CLR 09/09 A3027 RMK AO2 SLP251 T00940089 =
2017-10-22 05:53 METAR KPHD 220953Z AUTO 00000KT 7SM CLR 10/09 A3027 RMK AO2 SLP249 T01000094 =
2017-10-22 04:53 METAR KPHD 220853Z AUTO 11003KT 7SM CLR 11/10 A3026 RMK AO2 SLP244 T01110100
                 51005 =
2017-10-22 03:53 METAR KPHD 220753Z AUTO 00000KT 7SM CLR 11/10 A3025 RMK AO2 SLP243 T01060100 =
2017-10-22 02:53 METAR KPHD 220653Z AUTO 00000KT 7SM CLR 11/10 A3025 RMK AO2 SLP241 T01060100 =
2017-10-22 01:53 METAR KPHD 220553Z AUTO 00000KT 7SM CLR 11/11 A3024 RMK AO2 SLP239 T01110106
                 10156 20100 57006 =
2017-10-22 00:53 METAR KPHD 220453Z AUTO 11003KT 5SM BR CLR 11/09 A3025 RMK AO2 SLP242 T01060094
                 402330050 =
2017-10-21 23:53 METAR KPHD 220353Z AUTO 13004KT 8SM CLR 11/10 A3026 RMK AO2 SLP246 T01110100 =
2017-10-21 22:53 METAR KPHD 220253Z AUTO 00000KT 8SM CLR 12/11 A3026 RMK AO2 SLP249 T01170106
                 58001 =
2017-10-21 21:53 METAR KPHD 220153Z AUTO 12003KT 10SM CLR 12/11 A3027 RMK AO2 SLP252 T01220106 =
2017-10-21 20:53 METAR KPHD 220053Z AUTO 13003KT 10SM CLR 14/11 A3027 RMK AO2 SLP253 T01440111 =

Support USWX by starting your Amazon purchase here.